createdAt,value
2019-02-17T00:00:44.300Z,97668.27
2019-02-17T00:03:14.987Z,97665.34
2019-02-17T00:05:45.809Z,97666.05
2019-02-17T00:08:16.390Z,97670.78
2019-02-17T00:10:47.008Z,97667.64
2019-02-17T00:13:17.254Z,97665.55
2019-02-17T00:15:48.274Z,97659.49
2019-02-17T00:18:17.546Z,97665.21
2019-02-17T00:20:46.645Z,97664.73
2019-02-17T00:23:15.744Z,97661.59
2019-02-17T00:25:44.828Z,97658.61
2019-02-17T00:28:13.904Z,97655.80
2019-02-17T00:30:43.004Z,97656.41
2019-02-17T00:33:12.092Z,97653.72
2019-02-17T00:35:41.208Z,97648.11
2019-02-17T00:38:10.297Z,97651.13
2019-02-17T00:40:39.394Z,97650.52
2019-02-17T00:43:08.499Z,97655.41
2019-02-17T00:45:37.603Z,97646.18
2019-02-17T00:48:06.689Z,97641.09
2019-02-17T00:50:35.796Z,97640.00
2019-02-17T00:53:04.885Z,97638.01
2019-02-17T00:55:33.992Z,97635.71
2019-02-17T00:58:03.084Z,97634.70
2019-02-17T01:00:32.190Z,97628.42
2019-02-17T01:03:01.369Z,97626.84
2019-02-17T01:05:30.465Z,97631.28
2019-02-17T01:07:59.547Z,97622.37
2019-02-17T01:10:28.645Z,97626.28
2019-02-17T01:12:57.729Z,97620.39
2019-02-17T01:15:26.830Z,97627.50
2019-02-17T01:17:55.921Z,97623.23
2019-02-17T01:20:25.019Z,97623.87
2019-02-17T01:22:54.111Z,97623.45
2019-02-17T01:25:23.212Z,97622.08
2019-02-17T01:27:52.304Z,97626.80
2019-02-17T01:30:21.387Z,97621.70
2019-02-17T01:32:50.496Z,97622.73
2019-02-17T01:35:19.580Z,97621.36
2019-02-17T01:37:48.689Z,97619.52
2019-02-17T01:40:17.771Z,97616.63
2019-02-17T01:42:46.909Z,97614.81
2019-02-17T01:45:15.986Z,97611.89
2019-02-17T01:47:45.087Z,97611.68
2019-02-17T01:50:14.182Z,97610.19
2019-02-17T01:52:43.304Z,97610.98
2019-02-17T01:55:12.387Z,97607.66
2019-02-17T01:57:41.497Z,97601.03
2019-02-17T02:00:12.228Z,97599.30
2019-02-17T02:02:41.323Z,97594.94
2019-02-17T02:05:10.403Z,97596.66
2019-02-17T02:07:39.516Z,97586.45
2019-02-17T02:10:08.917Z,97589.85
2019-02-17T02:12:38.023Z,97588.27
2019-02-17T02:15:07.627Z,97589.08
2019-02-17T02:17:36.726Z,97581.65
2019-02-17T02:20:06.887Z,97587.03
2019-02-17T02:22:35.976Z,97590.00
2019-02-17T02:25:05.467Z,97584.67
2019-02-17T02:27:34.547Z,97588.56
2019-02-17T02:30:03.655Z,97587.36
2019-02-17T02:32:32.746Z,97586.36
2019-02-17T02:35:01.854Z,97587.81
2019-02-17T02:37:30.936Z,97584.88
2019-02-17T02:40:00.096Z,97583.64
2019-02-17T02:42:29.239Z,97581.08
2019-02-17T02:44:58.348Z,97578.95
2019-02-17T02:47:27.436Z,97578.33
2019-02-17T02:49:56.552Z,97572.88
2019-02-17T02:52:25.636Z,97575.36
2019-02-17T02:54:54.745Z,97570.95
2019-02-17T02:57:24.098Z,97571.55
2019-02-17T02:59:53.213Z,97573.30
2019-02-17T03:02:22.295Z,97576.02
2019-02-17T03:04:51.408Z,97572.46
2019-02-17T03:07:21.896Z,97578.72
2019-02-17T03:09:51.008Z,97576.03
2019-02-17T03:12:20.095Z,97570.97
2019-02-17T03:14:49.195Z,97567.17
2019-02-17T03:17:18.276Z,97565.05
2019-02-17T03:19:47.381Z,97564.95
2019-02-17T03:22:16.462Z,97560.16
2019-02-17T03:24:45.543Z,97558.33
2019-02-17T03:27:14.648Z,97557.54
2019-02-17T03:29:43.731Z,97559.06
2019-02-17T03:32:12.839Z,97557.00
2019-02-17T03:34:41.913Z,97558.41
2019-02-17T03:37:11.025Z,97555.55
2019-02-17T03:39:40.183Z,97562.16
2019-02-17T03:42:09.309Z,97555.19
2019-02-17T03:44:38.412Z,97553.42
2019-02-17T03:47:07.512Z,97554.16
2019-02-17T03:49:36.619Z,97550.66
2019-02-17T03:52:05.731Z,97551.40
2019-02-17T03:54:34.803Z,97540.72
2019-02-17T03:57:03.903Z,97537.34
2019-02-17T03:59:33.017Z,97545.50
2019-02-17T04:02:02.109Z,97537.78
2019-02-17T04:04:31.198Z,97547.77
2019-02-17T04:07:00.303Z,97541.17
2019-02-17T04:09:29.388Z,97531.60
2019-02-17T04:11:58.497Z,97534.28
2019-02-17T04:14:27.580Z,97539.93
2019-02-17T04:16:56.687Z,97539.44
2019-02-17T04:19:25.762Z,97542.94
2019-02-17T04:21:54.869Z,97537.13
2019-02-17T04:24:23.948Z,97535.81
2019-02-17T04:26:53.037Z,97533.55
2019-02-17T04:29:22.137Z,97531.36
2019-02-17T04:31:51.507Z,97532.55
2019-02-17T04:34:20.585Z,97525.04
2019-02-17T04:36:49.678Z,97527.23
2019-02-17T04:39:18.791Z,97520.48
2019-02-17T04:41:47.867Z,97518.56
2019-02-17T04:44:16.989Z,97515.16
2019-02-17T04:46:46.083Z,97518.13
2019-02-17T04:49:15.187Z,97517.16
2019-02-17T04:51:44.267Z,97514.69
2019-02-17T04:54:13.369Z,97515.55
2019-02-17T04:56:42.443Z,97518.84
2019-02-17T04:59:11.550Z,97510.97
2019-02-17T05:01:40.640Z,97514.40
2019-02-17T05:04:09.745Z,97507.95
2019-02-17T05:06:40.749Z,97508.23
2019-02-17T05:09:09.638Z,97506.09
2019-02-17T05:11:38.722Z,97501.70
2019-02-17T05:14:07.823Z,97496.91
2019-02-17T05:16:36.904Z,97498.33
2019-02-17T05:19:06.008Z,97496.20
2019-02-17T05:21:35.092Z,97492.55
2019-02-17T05:24:04.197Z,97495.55
2019-02-17T05:26:33.274Z,97499.12
2019-02-17T05:29:02.374Z,97498.17
2019-02-17T05:31:31.458Z,97500.48
2019-02-17T05:34:00.558Z,97500.77
2019-02-17T05:36:29.648Z,97496.03
2019-02-17T05:38:58.739Z,97501.98
2019-02-17T05:41:27.838Z,97495.03
2019-02-17T05:43:56.948Z,97492.12
2019-02-17T05:46:26.059Z,97494.44
2019-02-17T05:48:55.214Z,97497.90
2019-02-17T05:51:24.330Z,97490.20
2019-02-17T05:53:53.420Z,97490.99
2019-02-17T05:56:22.531Z,97494.23
2019-02-17T05:58:51.615Z,97489.96
2019-02-17T06:01:20.715Z,97493.16
2019-02-17T06:03:49.796Z,97497.73
2019-02-17T06:06:18.904Z,97498.55
2019-02-17T06:08:47.982Z,97499.11
2019-02-17T06:11:17.087Z,97493.98
2019-02-17T06:13:46.174Z,97495.80
2019-02-17T06:16:15.281Z,97497.62
2019-02-17T06:18:44.354Z,97502.02
2019-02-17T06:21:13.456Z,97497.79
2019-02-17T06:23:42.535Z,97502.73
2019-02-17T06:26:11.644Z,97512.30
2019-02-17T06:28:40.731Z,97510.39
2019-02-17T06:31:14.580Z,97509.82
2019-02-17T06:33:40.630Z,97507.29
2019-02-17T06:36:09.730Z,97510.60
2019-02-17T06:38:38.879Z,97509.66
2019-02-17T06:41:07.953Z,97504.91
2019-02-17T06:43:37.060Z,97513.88
2019-02-17T06:46:06.342Z,97513.38
2019-02-17T06:48:35.418Z,97519.75
2019-02-17T06:51:04.528Z,97515.48
2019-02-17T06:53:33.607Z,97515.76
2019-02-17T06:56:18.134Z,97511.00
2019-02-17T06:58:47.221Z,97511.95
2019-02-17T07:01:24.390Z,97509.16
2019-02-17T07:03:47.134Z,97509.04
2019-02-17T07:06:24.377Z,97509.23
2019-02-17T07:08:53.442Z,97500.08
2019-02-17T07:11:23.450Z,97492.24
2019-02-17T07:13:52.602Z,97490.75
2019-02-17T07:16:22.925Z,97487.78
2019-02-17T07:18:52.007Z,97489.41
2019-02-17T07:21:21.137Z,97479.00
2019-02-17T07:23:50.216Z,97483.14
2019-02-17T07:26:19.320Z,97480.63
2019-02-17T07:28:48.465Z,97482.55
2019-02-17T07:31:17.581Z,97486.59
2019-02-17T07:33:46.667Z,97476.86
2019-02-17T07:36:15.773Z,97487.48
2019-02-17T07:38:44.855Z,97484.72
2019-02-17T07:41:13.962Z,97483.17
2019-02-17T07:43:43.066Z,97488.69
2019-02-17T07:46:12.171Z,97486.05
2019-02-17T07:48:41.274Z,97487.72
2019-02-17T07:51:10.384Z,97485.74
2019-02-17T07:53:39.465Z,97488.67
2019-02-17T07:56:08.556Z,97490.58
2019-02-17T07:58:37.653Z,97485.30
2019-02-17T08:01:07.407Z,97492.01
2019-02-17T08:03:36.539Z,97485.71
2019-02-17T08:06:05.628Z,97479.10
2019-02-17T08:08:34.738Z,97479.73
2019-02-17T08:11:04.456Z,97486.08
2019-02-17T08:13:33.705Z,97481.98
2019-02-17T08:16:02.854Z,97482.52
2019-02-17T08:18:31.967Z,97486.78
2019-02-17T08:21:01.057Z,97483.34
2019-02-17T08:23:30.161Z,97478.92
2019-02-17T08:25:59.243Z,97476.72
2019-02-17T08:28:28.353Z,97476.34
2019-02-17T08:30:57.436Z,97477.06
2019-02-17T08:33:26.543Z,97477.88
2019-02-17T08:35:55.640Z,97482.42
2019-02-17T08:38:24.738Z,97482.88
2019-02-17T08:40:53.840Z,97479.20
2019-02-17T08:43:22.963Z,97477.79
2019-02-17T08:45:52.060Z,97470.58
2019-02-17T08:48:21.179Z,97471.94
2019-02-17T08:50:50.277Z,97468.23
2019-02-17T08:53:19.383Z,97464.42
2019-02-17T08:55:48.471Z,97475.02
2019-02-17T08:58:17.584Z,97481.86
2019-02-17T09:00:46.677Z,97471.98
2019-02-17T09:03:15.785Z,97466.54
2019-02-17T09:05:44.877Z,97470.12
2019-02-17T09:08:13.990Z,97469.98
2019-02-17T09:10:43.075Z,97473.12
2019-02-17T09:13:12.185Z,97464.38
2019-02-17T09:15:41.274Z,97460.61
2019-02-17T09:18:10.519Z,97463.14
2019-02-17T09:20:39.819Z,97458.42
2019-02-17T09:23:08.968Z,97462.98
2019-02-17T09:25:38.060Z,97455.39
2019-02-17T09:28:07.168Z,97466.84
2019-02-17T09:30:36.259Z,97464.45
2019-02-17T09:33:05.368Z,97457.41
2019-02-17T09:35:34.458Z,97465.67
2019-02-17T09:38:03.768Z,97463.53
2019-02-17T09:40:32.865Z,97460.75
2019-02-17T09:43:01.999Z,97467.70
2019-02-17T09:45:31.091Z,97458.44
2019-02-17T09:48:00.193Z,97459.07
2019-02-17T09:50:29.281Z,97455.44
2019-02-17T09:52:58.389Z,97448.30
2019-02-17T09:55:27.496Z,97462.89
2019-02-17T09:57:56.608Z,97453.92
2019-02-17T10:00:25.700Z,97455.73
2019-02-17T10:02:54.802Z,97449.83
2019-02-17T10:05:23.906Z,97450.82
2019-02-17T10:07:53.022Z,97454.73
2019-02-17T10:10:22.136Z,97446.65
2019-02-17T10:12:51.234Z,97452.02
2019-02-17T10:15:20.319Z,97457.13
2019-02-17T10:17:49.396Z,97457.20
2019-02-17T10:20:18.510Z,97452.16
2019-02-17T10:22:47.595Z,97441.41
2019-02-17T10:25:16.704Z,97441.11
2019-02-17T10:27:45.792Z,97441.47
2019-02-17T10:30:15.238Z,97441.66
2019-02-17T10:32:44.328Z,97442.00
2019-02-17T10:35:13.554Z,97444.69
2019-02-17T10:37:42.640Z,97439.89
2019-02-17T10:40:15.213Z,97437.32
2019-02-17T10:42:44.301Z,97443.81
2019-02-17T10:45:13.717Z,97440.41
2019-02-17T10:47:42.796Z,97442.79
2019-02-17T10:50:12.330Z,97431.83
2019-02-17T10:52:41.420Z,97433.69
2019-02-17T10:55:10.764Z,97433.72
2019-02-17T10:57:41.516Z,97441.50
2019-02-17T11:00:13.043Z,97432.09
2019-02-17T11:02:47.069Z,97438.33
2019-02-17T11:05:13.001Z,97448.36
2019-02-17T11:07:43.551Z,97436.38
2019-02-17T11:10:12.893Z,97425.79
2019-02-17T11:12:41.979Z,97415.48
2019-02-17T11:15:12.854Z,97424.28
2019-02-17T11:17:41.937Z,97426.79
2019-02-17T11:20:11.047Z,97423.46
2019-02-17T11:22:40.150Z,97413.89
2019-02-17T11:25:09.361Z,97413.64
2019-02-17T11:27:38.438Z,97413.22
2019-02-17T11:30:09.760Z,97407.68
2019-02-17T11:32:38.841Z,97410.02
2019-02-17T11:35:08.066Z,97404.88
2019-02-17T11:37:37.157Z,97402.95
2019-02-17T11:40:07.837Z,97410.83
2019-02-17T11:42:36.926Z,97400.20
2019-02-17T11:45:07.398Z,97387.80
2019-02-17T11:47:36.489Z,97398.75
2019-02-17T11:50:05.937Z,97394.83
2019-02-17T11:52:35.078Z,97390.81
2019-02-17T11:55:04.320Z,97378.58
2019-02-17T11:57:33.422Z,97386.22
2019-02-17T12:00:02.529Z,97384.89
2019-02-17T12:02:31.623Z,97383.07
2019-02-17T12:05:00.815Z,97374.30
2019-02-17T12:07:29.907Z,97390.30
2019-02-17T12:09:59.019Z,97381.80
2019-02-17T12:12:28.103Z,97376.38
2019-02-17T12:14:57.206Z,97376.64
2019-02-17T12:17:26.286Z,97382.92
2019-02-17T12:19:59.346Z,97368.62
2019-02-17T12:22:42.318Z,97365.55
2019-02-17T12:25:25.959Z,97353.66
2019-02-17T12:28:00.417Z,97357.84
2019-02-17T12:30:29.517Z,97347.29
2019-02-17T12:32:58.597Z,97342.16
2019-02-17T12:35:27.702Z,97346.08
2019-02-17T12:37:56.787Z,97332.44
2019-02-17T12:40:25.900Z,97344.38
2019-02-17T12:42:55.042Z,97343.64
2019-02-17T12:45:24.136Z,97335.73
2019-02-17T12:47:57.877Z,97337.36
2019-02-17T12:50:24.052Z,97331.98
2019-02-17T12:52:53.148Z,97329.89
2019-02-17T12:55:22.246Z,97334.03
2019-02-17T12:57:51.337Z,97327.77
2019-02-17T13:00:20.448Z,97325.55
2019-02-17T13:02:49.529Z,97320.47
2019-02-17T13:05:18.631Z,97315.13
2019-02-17T13:07:47.728Z,97314.68
2019-02-17T13:10:16.830Z,97314.94
2019-02-17T13:12:46.065Z,97320.77
2019-02-17T13:15:15.243Z,97320.53
2019-02-17T13:17:44.328Z,97311.31
2019-02-17T13:20:13.450Z,97314.41
2019-02-17T13:22:42.533Z,97305.91
2019-02-17T13:25:11.967Z,97312.98
2019-02-17T13:27:41.082Z,97301.92
2019-02-17T13:30:13.533Z,97307.07
2019-02-17T13:32:42.644Z,97307.19
2019-02-17T13:35:11.742Z,97313.25
2019-02-17T13:37:40.847Z,97304.89
2019-02-17T13:40:10.804Z,97316.07
2019-02-17T13:42:39.911Z,97309.42
2019-02-17T13:45:10.632Z,97306.59
2019-02-17T13:47:39.744Z,97304.90
2019-02-17T13:50:10.598Z,97306.83
2019-02-17T13:52:39.697Z,97308.53
2019-02-17T13:55:09.146Z,97306.09
2019-02-17T13:57:38.268Z,97298.88
2019-02-17T14:00:10.342Z,97308.16
2019-02-17T14:02:39.456Z,97303.87
2019-02-17T14:05:08.677Z,97292.24
2019-02-17T14:07:37.777Z,97284.67
2019-02-17T14:10:08.039Z,97285.77
2019-02-17T14:12:37.147Z,97292.09
2019-02-17T14:15:08.042Z,97287.35
2019-02-17T14:17:37.143Z,97292.11
2019-02-17T14:20:07.556Z,97292.96
2019-02-17T14:22:36.704Z,97279.86
2019-02-17T14:25:05.840Z,97273.16
2019-02-17T14:27:34.958Z,97276.59
2019-02-17T14:30:04.429Z,97270.77
2019-02-17T14:32:33.535Z,97277.09
2019-02-17T14:35:02.613Z,97262.03
2019-02-17T14:37:31.726Z,97261.44
2019-02-17T14:40:00.852Z,97270.80
2019-02-17T14:42:29.915Z,97270.41
2019-02-17T14:44:59.053Z,97269.26
2019-02-17T14:47:28.156Z,97268.03
2019-02-17T14:49:57.265Z,97257.53
2019-02-17T14:52:26.350Z,97259.50
2019-02-17T14:54:55.459Z,97263.09
2019-02-17T14:57:24.539Z,97256.73
2019-02-17T14:59:53.648Z,97263.59
2019-02-17T15:02:22.733Z,97258.58
2019-02-17T15:04:51.843Z,97257.81
2019-02-17T15:07:20.939Z,97254.97
2019-02-17T15:09:50.045Z,97255.27
2019-02-17T15:12:19.140Z,97256.88
2019-02-17T15:14:48.244Z,97254.65
2019-02-17T15:17:17.344Z,97250.19
2019-02-17T15:19:46.456Z,97252.95
2019-02-17T15:22:15.532Z,97248.73
2019-02-17T15:24:44.637Z,97246.46
2019-02-17T15:27:13.718Z,97248.38
2019-02-17T15:29:42.825Z,97248.12
2019-02-17T15:32:11.928Z,97241.37
2019-02-17T15:34:41.140Z,97244.61
2019-02-17T15:37:10.229Z,97249.72
2019-02-17T15:39:39.334Z,97242.23
2019-02-17T15:42:08.413Z,97242.04
2019-02-17T15:44:37.596Z,97232.75
2019-02-17T15:47:06.700Z,97244.38
2019-02-17T15:49:35.806Z,97237.41
2019-02-17T15:52:04.886Z,97240.92
2019-02-17T15:54:33.982Z,97240.55
2019-02-17T15:57:03.072Z,97242.46
2019-02-17T15:59:32.380Z,97242.16
2019-02-17T16:02:01.482Z,97233.30
2019-02-17T16:04:30.579Z,97235.27
2019-02-17T16:06:59.660Z,97229.92
2019-02-17T16:09:28.777Z,97230.42
2019-02-17T16:11:57.864Z,97230.00
2019-02-17T16:14:26.965Z,97230.00
2019-02-17T16:16:56.100Z,97227.93
2019-02-17T16:19:25.207Z,97223.70
2019-02-17T16:21:54.306Z,97225.59
2019-02-17T16:24:23.410Z,97221.02
2019-02-17T16:26:52.509Z,97227.26
2019-02-17T16:29:21.619Z,97229.17
2019-02-17T16:31:50.702Z,97227.84
2019-02-17T16:34:19.815Z,97229.41
2019-02-17T16:36:48.911Z,97229.12
2019-02-17T16:39:18.029Z,97238.02
2019-02-17T16:41:47.119Z,97238.96
2019-02-17T16:44:16.255Z,97237.49
2019-02-17T16:46:45.349Z,97237.62
2019-02-17T16:49:14.463Z,97237.53
2019-02-17T16:51:43.563Z,97244.11
2019-02-17T16:54:12.665Z,97237.66
2019-02-17T16:56:41.748Z,97242.28
2019-02-17T16:59:10.849Z,97245.48
2019-02-17T17:01:39.927Z,97247.11
2019-02-17T17:04:09.039Z,97248.52
2019-02-17T17:06:38.115Z,97251.09
2019-02-17T17:09:07.743Z,97253.67
2019-02-17T17:11:36.835Z,97255.87
2019-02-17T17:14:08.964Z,97256.99
2019-02-17T17:16:36.730Z,97261.23
2019-02-17T17:19:06.353Z,97254.75
2019-02-17T17:21:35.688Z,97255.73
2019-02-17T17:24:04.765Z,97260.22
2019-02-17T17:26:33.857Z,97256.59
2019-02-17T17:29:02.961Z,97263.36
2019-02-17T17:31:32.302Z,97261.02
2019-02-17T17:34:01.394Z,97267.84
2019-02-17T17:36:30.494Z,97265.91
2019-02-17T17:38:59.583Z,97263.75
2019-02-17T17:41:28.711Z,97262.95
2019-02-17T17:43:57.995Z,97265.45
2019-02-17T17:46:27.133Z,97266.35
2019-02-17T17:48:56.230Z,97265.22
2019-02-17T17:51:25.423Z,97263.55
2019-02-17T17:53:54.487Z,97267.75
2019-02-17T17:56:23.601Z,97271.34
2019-02-17T17:58:52.677Z,97267.52
2019-02-17T18:01:21.803Z,97275.73
2019-02-17T18:03:50.885Z,97278.55
2019-02-17T18:06:19.984Z,97280.47
2019-02-17T18:08:49.061Z,97276.92
2019-02-17T18:11:18.169Z,97276.98
2019-02-17T18:13:47.252Z,97281.86
2019-02-17T18:16:16.357Z,97283.55
2019-02-17T18:18:45.447Z,97283.20
2019-02-17T18:21:14.549Z,97283.24
2019-02-17T18:23:43.635Z,97279.56
2019-02-17T18:26:12.736Z,97278.11
2019-02-17T18:28:41.821Z,97276.33
2019-02-17T18:31:10.931Z,97274.59
2019-02-17T18:33:40.014Z,97274.14
2019-02-17T18:36:09.118Z,97279.63
2019-02-17T18:38:38.225Z,97276.94
2019-02-17T18:41:07.330Z,97270.39
2019-02-17T18:43:36.451Z,97279.95
2019-02-17T18:46:05.554Z,97277.93
2019-02-17T18:48:34.635Z,97280.52
2019-02-17T18:51:03.737Z,97283.19
2019-02-17T18:53:32.821Z,97281.34
2019-02-17T18:56:01.923Z,97284.57
2019-02-17T18:58:31.001Z,97294.16
2019-02-17T19:01:00.099Z,97291.25
2019-02-17T19:03:29.213Z,97287.55
2019-02-17T19:05:58.319Z,97284.39
2019-02-17T19:08:27.406Z,97282.91
2019-02-17T19:10:56.494Z,97283.05
2019-02-17T19:13:25.611Z,97285.72
2019-02-17T19:15:54.708Z,97284.86
2019-02-17T19:18:23.838Z,97279.37
2019-02-17T19:20:53.804Z,97279.06
2019-02-17T19:23:22.901Z,97275.88
2019-02-17T19:25:51.991Z,97275.80
2019-02-17T19:28:21.107Z,97276.03
2019-02-17T19:30:50.192Z,97275.22
2019-02-17T19:33:19.167Z,97278.56
2019-02-17T19:35:48.254Z,97268.68
2019-02-17T19:38:17.353Z,97267.77
2019-02-17T19:40:46.438Z,97270.66
2019-02-17T19:43:15.577Z,97284.91
2019-02-17T19:45:44.666Z,97281.90
2019-02-17T19:48:13.766Z,97286.97
2019-02-17T19:50:42.860Z,97280.52
2019-02-17T19:53:11.971Z,97282.98
2019-02-17T19:55:41.059Z,97277.27
2019-02-17T19:58:10.164Z,97281.72
2019-02-17T20:00:39.252Z,97287.70
2019-02-17T20:03:36.335Z,97285.03
2019-02-17T20:06:05.468Z,97294.62
2019-02-17T20:08:34.794Z,97289.30
2019-02-17T20:11:05.139Z,97292.24
2019-02-17T20:13:34.283Z,97289.56
2019-02-17T20:16:03.370Z,97293.55
2019-02-17T20:18:32.479Z,97296.84
2019-02-17T20:21:01.564Z,97296.94
2019-02-17T20:23:30.765Z,97305.95
2019-02-17T20:25:59.846Z,97302.89
2019-02-17T20:28:40.632Z,97302.58
2019-02-17T20:30:59.773Z,97312.29
2019-02-17T20:33:28.857Z,97312.29
2019-02-17T20:36:02.625Z,97306.82
2019-02-17T20:38:28.763Z,97314.39
2019-02-17T20:40:57.879Z,97310.61
2019-02-17T20:43:26.991Z,97312.20
2019-02-17T20:45:56.105Z,97313.00
2019-02-17T20:48:25.189Z,97313.34
2019-02-17T20:50:54.291Z,97310.92
2019-02-17T20:53:23.373Z,97311.77
2019-02-17T20:55:52.484Z,97313.03
2019-02-17T20:58:21.565Z,97315.06
2019-02-17T21:00:50.671Z,97311.20
2019-02-17T21:03:19.764Z,97305.30
2019-02-17T21:05:48.866Z,97300.92
2019-02-17T21:08:17.950Z,97311.85
2019-02-17T21:10:47.056Z,97306.01
2019-02-17T21:13:16.137Z,97302.64
2019-02-17T21:15:45.240Z,97309.70
2019-02-17T21:18:14.318Z,97307.36
2019-02-17T21:20:43.422Z,97312.67
2019-02-17T21:23:12.497Z,97308.89
2019-02-17T21:25:41.575Z,97308.08
2019-02-17T21:28:10.681Z,97304.49
2019-02-17T21:30:39.757Z,97307.67
2019-02-17T21:33:08.912Z,97309.39
2019-02-17T21:35:37.998Z,97307.27
2019-02-17T21:38:07.098Z,97308.25
2019-02-17T21:40:36.178Z,97304.09
2019-02-17T21:43:05.308Z,97299.78
2019-02-17T21:45:34.524Z,97301.09
2019-02-17T21:48:03.640Z,97298.44
2019-02-17T21:50:32.718Z,97299.56
2019-02-17T21:53:01.835Z,97296.20
2019-02-17T21:55:30.919Z,97298.54
2019-02-17T21:58:00.031Z,97296.98
2019-02-17T22:00:29.116Z,97297.23
2019-02-17T22:02:58.215Z,97294.98
2019-02-17T22:05:27.301Z,97288.37
2019-02-17T22:07:56.401Z,97289.17
2019-02-17T22:10:25.477Z,97286.13
2019-02-17T22:12:54.575Z,97282.42
2019-02-17T22:15:23.667Z,97289.05
2019-02-17T22:17:52.769Z,97291.19
2019-02-17T22:20:22.013Z,97290.25
2019-02-17T22:22:51.119Z,97287.19
2019-02-17T22:25:20.198Z,97292.38
2019-02-17T22:27:49.367Z,97282.59
2019-02-17T22:30:18.451Z,97288.69
2019-02-17T22:32:47.529Z,97285.16
2019-02-17T22:35:16.635Z,97286.25
2019-02-17T22:37:45.718Z,97293.77
2019-02-17T22:40:14.930Z,97292.10
2019-02-17T22:42:44.005Z,97287.59
2019-02-17T22:45:13.235Z,97286.64
2019-02-17T22:47:42.419Z,97284.34
2019-02-17T22:50:11.631Z,97290.34
2019-02-17T22:52:40.708Z,97289.42
2019-02-17T22:55:10.389Z,97288.25
2019-02-17T22:57:39.576Z,97285.48
2019-02-17T23:00:24.767Z,97291.66
2019-02-17T23:02:53.847Z,97288.25
2019-02-17T23:05:22.956Z,97292.00
2019-02-17T23:07:52.036Z,97302.19
2019-02-17T23:10:21.143Z,97289.13
2019-02-17T23:12:50.226Z,97289.45
2019-02-17T23:15:19.330Z,97295.34
2019-02-17T23:17:48.415Z,97290.54
2019-02-17T23:20:17.526Z,97287.26
2019-02-17T23:22:46.615Z,97291.55
2019-02-17T23:25:15.715Z,97291.55
2019-02-17T23:27:44.790Z,97288.98
2019-02-17T23:30:13.891Z,97292.55
2019-02-17T23:32:42.961Z,97291.92
2019-02-17T23:35:12.072Z,97285.02
2019-02-17T23:37:41.152Z,97285.80
2019-02-17T23:40:10.974Z,97283.47
2019-02-17T23:42:40.071Z,97285.84
2019-02-17T23:45:09.231Z,97290.23
2019-02-17T23:47:38.306Z,97289.41
2019-02-17T23:50:07.511Z,97285.80
2019-02-17T23:52:36.611Z,97287.58
2019-02-17T23:55:05.795Z,97287.58
2019-02-17T23:57:34.902Z,97287.44
